createdAt,value
2023-04-19T00:00:34.404Z,85.50
2023-04-19T00:05:40.104Z,58.57
2023-04-19T00:15:53.911Z,57.38
2023-04-19T00:20:59.597Z,84.72
2023-04-19T00:31:11.099Z,61.97
2023-04-19T00:36:17.573Z,62.90
2023-04-19T00:41:25.590Z,80.00
2023-04-19T00:46:32.180Z,73.13
2023-04-19T00:51:38.269Z,55.67
2023-04-19T00:56:46.765Z,54.88
2023-04-19T01:01:53.544Z,67.18
2023-04-19T01:07:03.182Z,46.70
2023-04-19T01:12:09.765Z,57.70
2023-04-19T01:17:16.992Z,69.30
2023-04-19T01:22:24.555Z,81.97
2023-04-19T01:27:30.314Z,85.60
2023-04-19T01:32:35.846Z,66.20
2023-04-19T01:37:41.399Z,70.78
2023-04-19T01:42:48.155Z,58.50
2023-04-19T01:47:54.186Z,79.30
2023-04-19T01:53:00.180Z,83.90
2023-04-19T01:58:05.661Z,100.32
2023-04-19T02:03:11.717Z,93.68
2023-04-19T02:08:17.463Z,90.25
2023-04-19T02:13:23.124Z,88.50
2023-04-19T02:23:34.560Z,96.80
2023-04-19T02:28:44.639Z,97.93
2023-04-19T02:33:51.340Z,102.50
2023-04-19T02:44:04.987Z,93.28
2023-04-19T02:49:12.160Z,83.97
2023-04-19T03:04:30.852Z,104.47
2023-04-19T03:09:37.184Z,102.00
2023-04-19T03:19:48.864Z,95.72
2023-04-19T03:24:54.797Z,111.93
2023-04-19T03:30:01.630Z,97.47
2023-04-19T03:35:09.065Z,85.43
2023-04-19T03:40:15.024Z,112.95
2023-04-19T03:45:21.054Z,90.53
2023-04-19T03:50:27.202Z,94.85
2023-04-19T03:55:34.615Z,103.45
2023-04-19T04:00:40.338Z,111.68
2023-04-19T04:05:45.999Z,113.00
2023-04-19T04:15:59.891Z,115.33
2023-04-19T04:21:09.392Z,119.43
2023-04-19T04:26:19.546Z,117.70
2023-04-19T04:31:37.923Z,126.47
2023-04-19T04:36:51.135Z,118.90
2023-04-19T04:42:02.022Z,105.75
2023-04-19T04:47:07.312Z,138.77
2023-04-19T04:52:19.906Z,128.38
2023-04-19T04:57:49.694Z,124.80
2023-04-19T05:03:15.663Z,128.55
2023-04-19T05:08:28.584Z,125.97
2023-04-19T05:18:51.803Z,108.82
2023-04-19T05:23:58.395Z,149.30
2023-04-19T05:29:04.050Z,133.85
2023-04-19T05:34:22.050Z,137.60
2023-04-19T05:39:29.045Z,133.82
2023-04-19T05:44:36.800Z,117.07
2023-04-19T05:49:43.728Z,121.78
2023-04-19T05:55:00.955Z,126.40
2023-04-19T06:00:07.562Z,121.97
2023-04-19T06:05:19.210Z,125.22
2023-04-19T06:10:29.011Z,119.93
2023-04-19T06:15:41.486Z,121.47
2023-04-19T06:20:46.917Z,111.22
2023-04-19T06:25:52.322Z,113.43
2023-04-19T06:30:58.062Z,114.90
2023-04-19T06:36:06.968Z,111.82
2023-04-19T06:41:12.598Z,111.53
2023-04-19T06:46:21.258Z,96.15
2023-04-19T06:51:27.501Z,121.43
2023-04-19T06:56:47.714Z,123.22
2023-04-19T07:01:53.889Z,131.23
2023-04-19T07:07:00.156Z,97.60
2023-04-19T07:12:06.926Z,132.73
2023-04-19T07:17:12.710Z,120.10
2023-04-19T07:22:19.592Z,115.65
2023-04-19T07:27:25.962Z,130.75
2023-04-19T07:32:33.216Z,132.82
2023-04-19T07:37:39.235Z,117.40
2023-04-19T07:42:46.515Z,143.60
2023-04-19T07:47:52.994Z,120.90
2023-04-19T07:53:02.791Z,130.65
2023-04-19T07:58:14.392Z,126.88
2023-04-19T08:03:20.878Z,133.93
2023-04-19T08:08:27.953Z,130.75
2023-04-19T08:13:34.302Z,138.20
2023-04-19T08:18:40.723Z,127.72
2023-04-19T08:23:48.538Z,137.85
2023-04-19T08:29:06.236Z,146.15
2023-04-19T08:34:12.488Z,136.82
2023-04-19T08:39:29.667Z,136.65
2023-04-19T08:44:53.803Z,152.32
2023-04-19T08:50:24.185Z,137.95
2023-04-19T08:55:40.087Z,157.25
2023-04-19T09:00:49.621Z,159.20
2023-04-19T09:05:55.935Z,155.00
2023-04-19T09:11:03.908Z,136.23
2023-04-19T09:16:25.446Z,145.75
2023-04-19T09:21:35.830Z,145.15
2023-04-19T09:26:42.703Z,157.23
2023-04-19T09:32:00.758Z,163.10
2023-04-19T09:37:27.937Z,149.93
2023-04-19T09:48:05.913Z,150.38
2023-04-19T09:53:13.272Z,154.10
2023-04-19T09:58:20.978Z,144.23
2023-04-19T10:03:31.756Z,144.00
2023-04-19T10:08:37.761Z,140.73
2023-04-19T10:13:46.757Z,149.60
2023-04-19T10:18:53.918Z,152.88
2023-04-19T10:24:01.385Z,141.00
2023-04-19T10:29:07.888Z,135.45
2023-04-19T10:34:15.882Z,145.23
2023-04-19T10:39:43.741Z,145.77
2023-04-19T10:45:38.085Z,139.70
2023-04-19T10:56:43.715Z,134.63
2023-04-19T11:01:58.160Z,116.80
2023-04-19T11:07:10.674Z,116.90
2023-04-19T11:12:18.945Z,111.75
2023-04-19T11:17:34.589Z,98.60
2023-04-19T11:23:44.170Z,104.82
2023-04-19T11:28:50.783Z,94.20
2023-04-19T11:34:04.966Z,87.72
2023-04-19T11:39:48.533Z,90.72
2023-04-19T11:51:19.076Z,90.97
2023-04-19T11:56:50.800Z,82.75
2023-04-19T12:02:26.852Z,102.50
2023-04-19T12:08:00.857Z,77.80
2023-04-19T12:13:47.107Z,83.85
2023-04-19T12:19:18.391Z,98.15
2023-04-19T12:24:29.495Z,79.75
2023-04-19T12:29:40.826Z,86.95
2023-04-19T12:34:54.587Z,81.32
2023-04-19T12:40:05.428Z,77.07
2023-04-19T12:45:22.960Z,68.60
2023-04-19T12:56:14.300Z,68.05
2023-04-19T13:01:52.531Z,77.13
2023-04-19T13:07:28.209Z,80.40
2023-04-19T13:13:01.066Z,78.18
2023-04-19T13:18:32.250Z,73.90
2023-04-19T13:24:26.151Z,79.63
2023-04-19T13:29:47.660Z,75.88
2023-04-19T13:35:43.452Z,70.70
2023-04-19T13:42:01.602Z,75.18
2023-04-19T13:53:24.401Z,71.65
2023-04-19T13:58:37.247Z,76.32
2023-04-19T14:03:50.845Z,70.00
2023-04-19T14:08:59.354Z,79.53
2023-04-19T14:14:10.269Z,69.72
2023-04-19T14:19:26.822Z,72.00
2023-04-19T14:24:35.292Z,64.05
2023-04-19T14:29:56.330Z,78.60
2023-04-19T14:35:09.298Z,55.22
2023-04-19T14:40:28.575Z,71.53
2023-04-19T14:45:37.328Z,72.75
2023-04-19T14:50:46.210Z,53.00
2023-04-19T14:55:56.593Z,45.60
2023-04-19T15:01:17.217Z,47.65
2023-04-19T15:06:23.932Z,61.00
2023-04-19T15:11:36.189Z,63.85
2023-04-19T15:16:42.333Z,57.40
2023-04-19T15:21:53.596Z,60.10
2023-04-19T15:27:07.018Z,68.20
2023-04-19T15:32:14.134Z,60.25
2023-04-19T15:37:20.835Z,59.67
2023-04-19T15:42:31.089Z,71.53
2023-04-19T15:47:38.221Z,63.95
2023-04-19T15:52:47.999Z,71.20
2023-04-19T15:58:00.443Z,65.15
2023-04-19T16:03:21.668Z,71.95
2023-04-19T16:08:38.202Z,64.93
2023-04-19T16:13:46.721Z,68.55
2023-04-19T16:18:53.450Z,65.20
2023-04-19T16:24:02.948Z,61.25
2023-04-19T16:29:09.761Z,64.45
2023-04-19T16:34:15.992Z,61.30
2023-04-19T16:39:22.454Z,60.97
2023-04-19T16:44:29.069Z,57.33
2023-04-19T16:49:35.314Z,68.82
2023-04-19T16:54:45.466Z,62.25
2023-04-19T16:59:54.120Z,55.80
2023-04-19T17:05:02.730Z,54.65
2023-04-19T17:10:09.728Z,56.38
2023-04-19T17:21:08.119Z,59.00
2023-04-19T17:26:14.265Z,61.33
2023-04-19T17:31:25.796Z,52.53
2023-04-19T17:36:33.463Z,54.92
2023-04-19T17:41:39.601Z,53.67
2023-04-19T17:46:57.185Z,56.17
2023-04-19T17:52:03.783Z,54.83
2023-04-19T17:57:10.070Z,57.95
2023-04-19T18:02:15.953Z,50.75
2023-04-19T18:07:22.205Z,54.78
2023-04-19T18:12:28.460Z,53.67
2023-04-19T18:17:34.384Z,51.08
2023-04-19T18:22:40.207Z,50.33
2023-04-19T18:32:51.585Z,57.90
2023-04-19T18:37:57.877Z,50.05
2023-04-19T18:43:03.410Z,52.55
2023-04-19T18:48:09.349Z,55.58
2023-04-19T18:53:14.979Z,50.13
2023-04-19T18:58:21.009Z,53.88
2023-04-19T19:08:35.445Z,47.58
2023-04-19T19:13:42.441Z,48.05
2023-04-19T19:18:48.261Z,46.95
2023-04-19T19:23:57.970Z,48.85
2023-04-19T19:29:05.816Z,44.33
2023-04-19T19:34:27.172Z,46.47
2023-04-19T19:39:36.735Z,44.95
2023-04-19T19:44:42.697Z,41.55
2023-04-19T19:50:21.338Z,45.35
2023-04-19T19:55:15.451Z,46.88
2023-04-19T20:05:30.960Z,52.75
2023-04-19T20:10:37.303Z,51.08
2023-04-19T20:15:43.974Z,54.28
2023-04-19T20:20:49.897Z,46.65
2023-04-19T20:25:55.430Z,40.65
2023-04-19T20:31:01.131Z,47.33
2023-04-19T20:41:12.662Z,42.42
2023-04-19T20:46:18.781Z,46.10
2023-04-19T20:51:24.616Z,53.35
2023-04-19T20:56:30.604Z,52.60
2023-04-19T21:01:36.683Z,54.28
2023-04-19T21:06:43.223Z,48.55
2023-04-19T21:11:49.437Z,39.85
2023-04-19T21:16:54.850Z,47.80
2023-04-19T21:22:01.502Z,50.55
2023-04-19T21:27:07.207Z,63.58
2023-04-19T21:32:14.055Z,57.20
2023-04-19T21:37:21.580Z,64.88
2023-04-19T21:42:27.760Z,64.43
2023-04-19T21:47:33.583Z,61.92
2023-04-19T21:57:45.344Z,68.65
2023-04-19T22:02:51.436Z,60.65
2023-04-19T22:07:59.130Z,59.47
2023-04-19T22:13:06.757Z,55.90
2023-04-19T22:18:12.963Z,55.17
2023-04-19T22:23:18.823Z,65.43
2023-04-19T22:33:29.926Z,71.65
2023-04-19T22:38:36.189Z,96.80
2023-04-19T22:43:42.596Z,68.93
2023-04-19T22:48:49.748Z,66.47
2023-04-19T22:53:55.822Z,83.72
2023-04-19T22:59:01.726Z,69.72
2023-04-19T23:04:07.604Z,70.07
2023-04-19T23:14:23.982Z,58.70
2023-04-19T23:19:29.496Z,79.90
2023-04-19T23:24:37.621Z,72.93
2023-04-19T23:29:43.305Z,83.07
2023-04-19T23:34:49.248Z,94.30
2023-04-19T23:39:55.118Z,89.38
2023-04-19T23:45:00.989Z,78.40
2023-04-19T23:55:12.645Z,115.37
